Time;durP1;ratioP1;P1;durP2;ratioP2;P2;SDS_P1;SDS_P2;PMS_P1;PMS_P2;Temp;Humidity;BMP_temperature;BMP_pressure;BME280_temperature;BME280_humidity;BME280_pressure;Samples;Min_cycle;Max_cycle;Signal;HPM_P1;HPM_P2
2022/05/14 00:00:54;;;;;;;11.32;2.55;;;;;;;;;;5078647;28;20053;-78
2022/05/14 00:03:21;;;;;;;11.38;2.15;;;;;;;;;;5072251;28;20059;-78
2022/05/14 00:05:48;;;;;;;10.50;2.10;;;;;;;;;;5068526;28;20056;-78
2022/05/14 00:08:15;;;;;;;9.75;2.17;;;;;;;;;;5069282;28;20496;-78
2022/05/14 00:13:27;;;;;;;11.75;2.40;;;;;;;;;;5066805;28;20115;-78
2022/05/14 00:15:53;;;;;;;10.23;2.70;;;;;;;;;;5069057;28;20049;-78
2022/05/14 00:18:21;;;;;;;10.23;2.92;;;;;;;;;;5083796;28;20053;-78
2022/05/14 00:20:47;;;;;;;15.40;2.95;;;;;;;;;;5066382;28;20143;-78
2022/05/14 00:23:14;;;;;;;9.65;2.80;;;;;;;;;;5066394;28;20045;-78
2022/05/14 00:25:41;;;;;;;10.30;2.88;;;;;;;;;;5067024;28;20044;-77
2022/05/14 00:28:08;;;;;;;10.30;2.33;;;;;;;;;;5067306;28;20067;-78
2022/05/14 00:30:36;;;;;;;13.65;2.80;;;;;;;;;;5067979;28;20060;-78
2022/05/14 00:33:02;;;;;;;11.85;2.67;;;;;;;;;;5068037;28;20101;-78
2022/05/14 00:35:29;;;;;;;14.57;3.15;;;;;;;;;;5068094;28;20135;-78
2022/05/14 00:37:55;;;;;;;11.88;2.90;;;;;;;;;;5067798;28;20060;-78
2022/05/14 00:40:26;;;;;;;7.03;2.60;;;;;;;;;;5067209;28;20060;-78
2022/05/14 00:42:52;;;;;;;;;;;;;;;;;;5070967;28;20147;-78
2022/05/14 00:45:19;;;;;;;12.90;2.78;;;;;;;;;;5065512;28;47599;-77
2022/05/14 00:47:48;;;;;;;10.32;2.50;;;;;;;;;;5056981;28;20581;-78
2022/05/14 00:50:26;;;;;;;10.32;2.75;;;;;;;;;;5062258;28;21030;-78
2022/05/14 00:52:57;;;;;;;15.23;3.45;;;;;;;;;;5067741;28;20089;-78
2022/05/14 00:55:24;;;;;;;8.43;3.20;;;;;;;;;;5051486;28;20072;-78
2022/05/14 00:57:50;;;;;;;9.55;2.70;;;;;;;;;;5051544;28;20140;-79
2022/05/14 01:00:19;;;;;;;10.95;2.88;;;;;;;;;;5052067;28;20061;-78
2022/05/14 01:02:45;;;;;;;11.13;2.90;;;;;;;;;;5067597;28;20057;-78
2022/05/14 01:05:12;;;;;;;9.63;3.05;;;;;;;;;;5051461;28;20081;-78
2022/05/14 01:07:40;;;;;;;9.40;2.60;;;;;;;;;;5090562;28;20100;-78
2022/05/14 01:10:09;;;;;;;13.63;3.22;;;;;;;;;;5092736;28;20616;-79
2022/05/14 01:12:37;;;;;;;12.00;2.95;;;;;;;;;;5055600;28;20045;-79
2022/05/14 01:15:12;;;;;;;10.48;3.22;;;;;;;;;;5053254;28;20124;-79
2022/05/14 01:17:40;;;;;;;10.32;3.13;;;;;;;;;;5054313;28;20064;-79
2022/05/14 01:20:07;;;;;;;9.02;2.75;;;;;;;;;;5053208;28;20137;-78
2022/05/14 01:23:09;;;;;;;16.40;3.70;;;;;;;;;;5069290;28;20080;-79
2022/05/14 01:28:23;;;;;;;11.52;2.83;;;;;;;;;;5056028;28;20099;-79
2022/05/14 01:30:51;;;;;;;15.68;4.40;;;;;;;;;;5075111;28;20504;-79
2022/05/14 01:33:18;;;;;;;10.23;3.22;;;;;;;;;;5073343;28;20049;-79
2022/05/14 01:35:44;;;;;;;14.60;3.03;;;;;;;;;;5054225;28;20152;-79
2022/05/14 01:38:11;;;;;;;11.88;3.22;;;;;;;;;;5053724;28;20491;-79
2022/05/14 01:40:37;;;;;;;15.27;3.45;;;;;;;;;;5073600;28;20547;-79
2022/05/14 01:43:04;;;;;;;11.90;3.30;;;;;;;;;;5072498;28;20057;-79
2022/05/14 01:45:31;;;;;;;15.65;3.53;;;;;;;;;;5071217;28;20057;-78
2022/05/14 01:47:57;;;;;;;11.43;3.40;;;;;;;;;;5059036;28;20180;-79
2022/05/14 01:50:24;;;;;;;12.43;3.50;;;;;;;;;;5086561;28;20051;-78
2022/05/14 01:52:51;;;;;;;10.43;3.50;;;;;;;;;;5093494;28;20051;-79
2022/05/14 01:55:17;;;;;;;10.13;2.95;;;;;;;;;;5094273;28;20339;-79
2022/05/14 01:57:43;;;;;;;11.75;3.53;;;;;;;;;;5093774;28;20045;-79
2022/05/14 02:00:11;;;;;;;12.65;3.17;;;;;;;;;;5092817;28;20040;-78
2022/05/14 02:02:38;;;;;;;9.88;3.28;;;;;;;;;;5060681;28;20057;-79
2022/05/14 02:05:04;;;;;;;15.32;3.70;;;;;;;;;;5055083;28;20068;-79
2022/05/14 02:07:31;;;;;;;13.50;3.47;;;;;;;;;;5062227;28;20049;-78
2022/05/14 02:09:57;;;;;;;14.32;3.78;;;;;;;;;;5072973;28;20045;-79
2022/05/14 02:12:24;;;;;;;12.32;3.63;;;;;;;;;;5072243;28;20931;-78
2022/05/14 02:14:50;;;;;;;13.80;3.58;;;;;;;;;;5074058;28;20134;-79
2022/05/14 02:17:17;;;;;;;12.77;3.72;;;;;;;;;;5072569;28;20053;-79
2022/05/14 02:19:44;;;;;;;11.98;3.70;;;;;;;;;;5060776;28;20109;-79
2022/05/14 02:22:10;;;;;;;12.43;3.92;;;;;;;;;;5052831;28;20841;-79
2022/05/14 02:24:37;;;;;;;15.00;4.28;;;;;;;;;;5072117;28;20161;-79
2022/05/14 02:27:04;;;;;;;11.55;3.40;;;;;;;;;;5072424;28;20607;-79
2022/05/14 02:29:50;;;;;;;15.52;3.80;;;;;;;;;;5074006;28;20048;-79
2022/05/14 02:32:17;;;;;;;14.38;3.72;;;;;;;;;;5072365;28;20137;-79
2022/05/14 02:34:43;;;;;;;10.88;3.78;;;;;;;;;;5074706;28;20797;-79
2022/05/14 02:37:10;;;;;;;14.70;4.25;;;;;;;;;;5058306;28;20064;-79
2022/05/14 02:39:36;;;;;;;13.68;4.00;;;;;;;;;;5071938;28;20055;-79
2022/05/14 02:42:03;;;;;;;12.65;3.80;;;;;;;;;;5073209;28;20124;-79
2022/05/14 02:44:29;;;;;;;13.45;4.10;;;;;;;;;;5072531;28;20911;-79
2022/05/14 02:46:55;;;;;;;12.98;4.20;;;;;;;;;;5070785;28;20085;-79
2022/05/14 02:49:22;;;;;;;12.73;4.00;;;;;;;;;;5053958;28;20145;-79
2022/05/14 02:51:48;;;;;;;11.82;4.15;;;;;;;;;;5052842;28;20061;-79
2022/05/14 02:54:14;;;;;;;14.93;4.63;;;;;;;;;;5052726;28;20105;-79
2022/05/14 02:56:41;;;;;;;15.68;4.15;;;;;;;;;;5071148;28;20084;-79
2022/05/14 02:59:08;;;;;;;17.90;4.63;;;;;;;;;;5070807;28;20912;-79
2022/05/14 03:01:35;;;;;;;16.38;5.05;;;;;;;;;;5071889;28;20088;-79
2022/05/14 03:04:02;;;;;;;19.88;4.60;;;;;;;;;;5055735;28;20072;-79
2022/05/14 03:06:29;;;;;;;17.45;5.05;;;;;;;;;;5076919;28;20037;-79
2022/05/14 03:08:56;;;;;;;17.10;4.80;;;;;;;;;;5076723;28;20520;-79
2022/05/14 03:11:22;;;;;;;21.10;5.28;;;;;;;;;;5059764;28;20191;-79
2022/05/14 03:13:49;;;;;;;16.63;4.97;;;;;;;;;;5072340;28;20077;-79
2022/05/14 03:16:15;;;;;;;13.35;4.93;;;;;;;;;;5063467;28;20773;-79
2022/05/14 03:18:41;;;;;;;13.93;4.80;;;;;;;;;;5073999;28;20079;-79
2022/05/14 03:21:08;;;;;;;14.40;5.18;;;;;;;;;;5091825;28;20063;-79
2022/05/14 03:23:34;;;;;;;12.10;4.50;;;;;;;;;;5076774;28;20140;-79
2022/05/14 03:26:00;;;;;;;12.77;5.00;;;;;;;;;;5075438;28;20567;-79
2022/05/14 03:28:27;;;;;;;16.05;4.65;;;;;;;;;;5057797;28;20085;-79
2022/05/14 03:30:54;;;;;;;16.00;4.60;;;;;;;;;;5073732;28;20055;-79
2022/05/14 03:33:20;;;;;;;13.15;4.82;;;;;;;;;;5056299;28;20069;-79
2022/05/14 03:35:46;;;;;;;11.93;5.60;;;;;;;;;;5057539;28;20136;-79
2022/05/14 03:38:13;;;;;;;15.50;5.18;;;;;;;;;;5093106;28;20097;-79
2022/05/14 03:40:39;;;;;;;21.38;5.85;;;;;;;;;;5075178;28;20148;-79
2022/05/14 03:43:05;;;;;;;12.27;5.00;;;;;;;;;;5091414;28;20370;-78
2022/05/14 03:45:32;;;;;;;18.25;5.95;;;;;;;;;;5072773;28;20045;-79
2022/05/14 03:47:58;;;;;;;15.50;5.45;;;;;;;;;;5068512;28;20061;-79
2022/05/14 03:50:25;;;;;;;18.08;6.05;;;;;;;;;;5075112;28;20859;-79
2022/05/14 03:52:51;;;;;;;16.48;6.10;;;;;;;;;;5075588;28;20056;-79
2022/05/14 03:55:17;;;;;;;14.90;5.97;;;;;;;;;;5074720;28;20049;-79
2022/05/14 03:57:44;;;;;;;16.45;5.57;;;;;;;;;;5058635;28;20132;-79
2022/05/14 04:00:11;;;;;;;18.50;6.10;;;;;;;;;;5070598;28;20137;-79
2022/05/14 04:02:38;;;;;;;15.05;5.53;;;;;;;;;;5056140;28;20080;-79
2022/05/14 04:05:04;;;;;;;19.55;5.90;;;;;;;;;;5055682;28;20081;-79
2022/05/14 04:07:31;;;;;;;15.38;6.20;;;;;;;;;;5074174;28;20052;-79
2022/05/14 04:09:57;;;;;;;17.42;6.75;;;;;;;;;;5056029;28;20053;-79
2022/05/14 04:12:29;;;;;;;17.55;6.50;;;;;;;;;;5058334;28;20049;-79
2022/05/14 04:14:56;;;;;;;22.58;7.18;;;;;;;;;;5075764;28;20049;-79
2022/05/14 04:17:22;;;;;;;21.42;6.43;;;;;;;;;;5076724;28;20091;-79
2022/05/14 04:19:48;;;;;;;17.50;6.25;;;;;;;;;;5073345;28;20065;-79
2022/05/14 04:22:15;;;;;;;16.90;7.25;;;;;;;;;;5075306;28;20073;-79
2022/05/14 04:24:41;;;;;;;17.70;6.82;;;;;;;;;;5074947;28;20139;-79
2022/05/14 04:27:08;;;;;;;15.43;6.65;;;;;;;;;;5073921;28;20105;-79
2022/05/14 04:29:34;;;;;;;18.63;7.32;;;;;;;;;;5075813;28;20136;-79
2022/05/14 04:32:00;;;;;;;21.05;7.95;;;;;;;;;;5086256;28;20056;-79
2022/05/14 04:34:27;;;;;;;16.83;6.93;;;;;;;;;;5094976;28;20068;-79
2022/05/14 04:36:55;;;;;;;16.73;7.25;;;;;;;;;;5056172;28;20073;-79
2022/05/14 04:39:31;;;;;;;21.90;7.82;;;;;;;;;;5055511;28;20076;-79
2022/05/14 04:42:02;;;;;;;18.33;8.23;;;;;;;;;;5054607;28;20080;-79
2022/05/14 04:44:29;;;;;;;19.63;7.32;;;;;;;;;;5054147;28;20060;-79
2022/05/14 04:46:55;;;;;;;20.63;7.30;;;;;;;;;;5061673;28;20098;-79
2022/05/14 04:49:22;;;;;;;18.60;8.35;;;;;;;;;;5054851;28;20076;-79
2022/05/14 04:51:48;;;;;;;23.75;8.23;;;;;;;;;;5053825;28;20053;-79
2022/05/14 04:54:15;;;;;;;20.75;7.97;;;;;;;;;;5055465;28;20041;-79
2022/05/14 04:56:42;;;;;;;25.00;8.15;;;;;;;;;;5055413;28;20604;-79
2022/05/14 04:59:08;;;;;;;26.38;8.70;;;;;;;;;;5054723;28;20054;-79
2022/05/14 05:01:34;;;;;;;23.25;7.93;;;;;;;;;;5055074;28;20068;-79
2022/05/14 05:04:01;;;;;;;21.13;8.73;;;;;;;;;;5055263;28;20076;-79
2022/05/14 05:06:28;;;;;;;23.83;7.72;;;;;;;;;;5054504;28;20095;-79
2022/05/14 05:08:55;;;;;;;20.45;8.60;;;;;;;;;;5054098;28;20144;-79
2022/05/14 05:11:22;;;;;;;23.77;8.27;;;;;;;;;;5071326;28;20050;-79
2022/05/14 05:13:48;;;;;;;21.17;8.52;;;;;;;;;;5077131;28;20045;-79
2022/05/14 05:16:15;;;;;;;20.80;8.20;;;;;;;;;;5082411;28;20053;-79
2022/05/14 05:18:41;;;;;;;22.42;8.70;;;;;;;;;;5073019;28;20081;-79
2022/05/14 05:21:07;;;;;;;21.92;9.18;;;;;;;;;;5092725;28;20074;-79
2022/05/14 05:23:34;;;;;;;21.55;8.52;;;;;;;;;;5077709;28;20078;-79
2022/05/14 05:26:00;;;;;;;24.35;8.85;;;;;;;;;;5105262;28;20136;-79
2022/05/14 05:28:27;;;;;;;21.30;7.88;;;;;;;;;;5072175;28;20112;-79
2022/05/14 05:30:54;;;;;;;23.08;8.93;;;;;;;;;;5074283;28;20112;-79
2022/05/14 05:33:24;;;;;;;22.33;9.05;;;;;;;;;;5074085;28;20100;-79
2022/05/14 05:35:51;;;;;;;24.55;9.00;;;;;;;;;;5073410;28;20051;-79
2022/05/14 05:38:17;;;;;;;26.50;9.00;;;;;;;;;;5072850;28;20053;-79
2022/05/14 05:40:44;;;;;;;27.10;9.35;;;;;;;;;;5073609;28;20080;-79
2022/05/14 05:43:11;;;;;;;23.02;9.57;;;;;;;;;;5070738;28;20102;-79
2022/05/14 05:45:38;;;;;;;25.05;9.65;;;;;;;;;;5071138;28;20136;-79
2022/05/14 05:48:05;;;;;;;27.65;9.13;;;;;;;;;;5069314;28;20100;-79
2022/05/14 05:50:32;;;;;;;27.23;8.48;;;;;;;;;;5052599;28;20059;-79
2022/05/14 05:52:59;;;;;;;24.40;8.93;;;;;;;;;;5057754;28;20037;-79
2022/05/14 05:58:11;;;;;;;23.95;8.82;;;;;;;;;;5073587;28;20053;-79
2022/05/14 06:00:38;;;;;;;24.58;8.73;;;;;;;;;;5070260;28;20068;-79
2022/05/14 06:03:04;;;;;;;27.40;8.90;;;;;;;;;;5072860;28;20049;-79
2022/05/14 06:05:36;;;;;;;20.58;9.20;;;;;;;;;;5070309;28;20575;-79
2022/05/14 06:08:05;;;;;;;24.90;8.70;;;;;;;;;;5066837;28;20053;-80
2022/05/14 06:10:32;;;;;;;24.75;8.40;;;;;;;;;;5066836;28;20067;-80
2022/05/14 06:12:58;;;;;;;24.80;8.30;;;;;;;;;;5047964;28;20591;-80
2022/05/14 06:15:25;;;;;;;23.58;8.20;;;;;;;;;;5064677;28;20069;-80
2022/05/14 06:17:51;;;;;;;19.83;7.88;;;;;;;;;;5052771;28;20057;-80
2022/05/14 06:20:18;;;;;;;19.02;8.25;;;;;;;;;;5046729;28;20053;-80
2022/05/14 06:22:44;;;;;;;18.42;7.88;;;;;;;;;;5067052;28;20136;-80
2022/05/14 06:25:12;;;;;;;22.15;7.38;;;;;;;;;;5065862;28;20043;-80
2022/05/14 06:27:39;;;;;;;19.15;7.32;;;;;;;;;;5070179;28;20860;-79
2022/05/14 06:30:06;;;;;;;19.67;7.55;;;;;;;;;;5068572;28;20641;-79
2022/05/14 06:32:32;;;;;;;21.70;7.43;;;;;;;;;;5068366;28;20180;-80
2022/05/14 06:34:59;;;;;;;19.67;7.25;;;;;;;;;;5067269;28;20056;-80
2022/05/14 06:37:25;;;;;;;19.38;7.65;;;;;;;;;;5068565;28;20139;-80
2022/05/14 06:39:52;;;;;;;18.48;7.07;;;;;;;;;;5073503;28;20127;-80
2022/05/14 06:42:18;;;;;;;21.52;8.05;;;;;;;;;;5076871;28;20061;-79
2022/05/14 06:44:45;;;;;;;19.05;7.53;;;;;;;;;;5078147;28;20049;-79
2022/05/14 06:47:11;;;;;;;21.67;7.45;;;;;;;;;;5075774;28;20104;-80
2022/05/14 06:49:38;;;;;;;19.70;7.28;;;;;;;;;;5072498;28;20528;-80
2022/05/14 06:52:05;;;;;;;21.13;6.75;;;;;;;;;;5062390;28;20054;-79
2022/05/14 06:54:33;;;;;;;24.67;7.03;;;;;;;;;;5045930;28;20049;-79
2022/05/14 06:57:01;;;;;;;21.60;6.60;;;;;;;;;;5065921;28;20053;-80
2022/05/14 06:59:28;;;;;;;26.92;6.55;;;;;;;;;;5066773;28;20059;-79
2022/05/14 07:01:55;;;;;;;16.77;6.63;;;;;;;;;;5067527;28;20060;-79
2022/05/14 07:07:06;;;;;;;17.20;6.38;;;;;;;;;;5068831;28;20266;-79
2022/05/14 07:09:33;;;;;;;18.08;6.57;;;;;;;;;;5069357;28;20057;-79
2022/05/14 07:12:03;;;;;;;21.65;6.72;;;;;;;;;;5070344;28;20053;-80
2022/05/14 07:14:30;;;;;;;16.67;6.70;;;;;;;;;;5058783;28;20115;-79
2022/05/14 07:16:57;;;;;;;18.10;6.70;;;;;;;;;;5066686;28;20064;-80
2022/05/14 07:19:23;;;;;;;16.85;6.13;;;;;;;;;;5051312;28;20593;-79
2022/05/14 07:21:51;;;;;;;14.15;5.57;;;;;;;;;;5067164;28;20096;-79
2022/05/14 07:24:19;;;;;;;16.83;6.55;;;;;;;;;;5067315;28;20054;-79
2022/05/14 07:26:46;;;;;;;20.13;5.70;;;;;;;;;;5051540;28;20553;-79
2022/05/14 07:29:14;;;;;;;20.65;5.53;;;;;;;;;;5066768;28;20049;-80
2022/05/14 07:31:41;;;;;;;18.35;5.90;;;;;;;;;;5070073;28;20095;-80
2022/05/14 07:34:08;;;;;;;18.60;5.88;;;;;;;;;;5070957;28;20057;-80
2022/05/14 07:36:42;;;;;;;23.63;4.90;;;;;;;;;;5071205;28;20147;-80
2022/05/14 07:39:08;;;;;;;16.90;5.10;;;;;;;;;;5071434;28;20057;-79
2022/05/14 07:41:36;;;;;;;16.25;4.30;;;;;;;;;;5070581;28;20047;-79
2022/05/14 07:44:05;;;;;;;17.98;4.53;;;;;;;;;;5072224;28;20060;-79
2022/05/14 07:46:32;;;;;;;17.25;4.82;;;;;;;;;;5072165;28;20053;-79
2022/05/14 07:49:00;;;;;;;24.50;4.90;;;;;;;;;;5070739;28;20926;-79
2022/05/14 07:51:27;;;;;;;15.38;5.03;;;;;;;;;;5073319;28;20041;-79
2022/05/14 07:53:53;;;;;;;15.77;5.10;;;;;;;;;;5075978;28;20087;-79
2022/05/14 07:56:20;;;;;;;16.45;4.70;;;;;;;;;;5071664;28;20136;-79
2022/05/14 07:58:47;;;;;;;20.85;5.07;;;;;;;;;;5075235;28;20926;-79
2022/05/14 08:01:14;;;;;;;17.13;4.22;;;;;;;;;;5077944;28;20115;-79
2022/05/14 08:03:41;;;;;;;20.65;4.47;;;;;;;;;;5078170;28;20060;-80
2022/05/14 08:06:09;;;;;;;15.93;4.80;;;;;;;;;;5079000;28;20033;-80
2022/05/14 08:08:36;;;;;;;18.13;4.82;;;;;;;;;;5078189;28;20115;-80
2022/05/14 08:11:02;;;;;;;22.38;5.10;;;;;;;;;;5073784;28;20584;-80
2022/05/14 08:13:33;;;;;;;16.58;5.07;;;;;;;;;;5074675;28;20056;-80
2022/05/14 08:15:59;;;;;;;16.90;4.95;;;;;;;;;;5060230;28;20076;-80
2022/05/14 08:18:26;;;;;;;15.75;3.90;;;;;;;;;;5076898;28;20044;-80
2022/05/14 08:20:52;;;;;;;19.55;4.00;;;;;;;;;;5076049;28;20143;-80
2022/05/14 08:26:04;;;;;;;16.10;4.05;;;;;;;;;;5077551;28;20053;-80
2022/05/14 08:28:31;;;;;;;17.77;4.03;;;;;;;;;;5075517;28;20040;-79
2022/05/14 08:30:57;;;;;;;20.27;3.95;;;;;;;;;;5077222;28;20147;-80
2022/05/14 08:33:24;;;;;;;16.52;4.20;;;;;;;;;;5073275;28;20060;-80
2022/05/14 08:35:50;;;;;;;17.02;3.67;;;;;;;;;;5076205;28;20061;-80
2022/05/14 08:38:17;;;;;;;13.27;3.97;;;;;;;;;;5076276;28;20057;-80
2022/05/14 08:40:52;;;;;;;17.20;4.43;;;;;;;;;;5071445;28;20108;-79
2022/05/14 08:43:20;;;;;;;13.75;3.88;;;;;;;;;;5072682;28;20229;-80
2022/05/14 08:45:46;;;;;;;17.83;3.90;;;;;;;;;;5071437;28;20155;-80
2022/05/14 08:48:23;;;;;;;14.38;3.72;;;;;;;;;;5072801;28;20105;-80
2022/05/14 08:51:09;;;;;;;16.13;3.80;;;;;;;;;;5061209;28;20113;-80
2022/05/14 08:53:37;;;;;;;16.60;4.15;;;;;;;;;;5041075;28;20101;-80
2022/05/14 08:56:22;;;;;;;17.55;3.97;;;;;;;;;;5053299;28;20105;-80
2022/05/14 08:59:07;;;;;;;15.18;3.85;;;;;;;;;;5071972;28;20590;-80
2022/05/14 09:01:36;;;;;;;13.70;3.40;;;;;;;;;;5073555;28;20148;-79
2022/05/14 09:04:03;;;;;;;40.20;5.75;;;;;;;;;;5076659;28;20064;-80
2022/05/14 09:06:30;;;;;;;30.08;5.22;;;;;;;;;;5074117;28;20664;-80
2022/05/14 09:08:56;;;;;;;20.17;4.03;;;;;;;;;;5054206;28;20128;-80
2022/05/14 09:11:37;;;;;;;16.77;3.72;;;;;;;;;;5054853;28;20124;-80
2022/05/14 09:14:06;;;;;;;14.27;3.75;;;;;;;;;;5054156;28;20073;-80
2022/05/14 09:16:34;;;;;;;16.58;4.15;;;;;;;;;;5049450;28;20057;-78
2022/05/14 09:19:11;;;;;;;14.88;3.80;;;;;;;;;;5046785;28;20049;-78
2022/05/14 09:21:38;;;;;;;16.85;3.75;;;;;;;;;;5048374;28;20084;-78
2022/05/14 09:24:16;;;;;;;15.73;3.67;;;;;;;;;;5049502;28;20229;-79
2022/05/14 09:26:43;;;;;;;18.98;3.90;;;;;;;;;;5046069;28;20096;-78
2022/05/14 09:29:18;;;;;;;26.48;4.68;;;;;;;;;;5055422;28;20088;-79
2022/05/14 09:31:53;;;;;;;20.25;4.28;;;;;;;;;;5069127;28;20147;-78
2022/05/14 09:34:20;;;;;;;14.43;3.83;;;;;;;;;;5068945;28;20982;-79
2022/05/14 09:36:48;;;;;;;16.00;3.88;;;;;;;;;;5070244;28;20052;-79
2022/05/14 09:39:16;;;;;;;15.65;3.90;;;;;;;;;;5073383;28;20052;-78
2022/05/14 09:41:44;;;;;;;11.93;3.65;;;;;;;;;;5067584;28;20057;-78
2022/05/14 09:44:16;;;;;;;18.15;4.05;;;;;;;;;;5062363;28;20127;-78
2022/05/14 09:46:43;;;;;;;16.27;4.00;;;;;;;;;;5062938;28;20054;-79
2022/05/14 09:49:16;;;;;;;14.63;3.92;;;;;;;;;;5067720;28;20088;-78
2022/05/14 09:51:43;;;;;;;16.38;3.95;;;;;;;;;;5067389;28;20052;-78
2022/05/14 09:54:11;;;;;;;17.45;4.18;;;;;;;;;;5068994;28;20701;-79
2022/05/14 09:56:56;;;;;;;15.05;3.70;;;;;;;;;;5074756;28;20045;-78
2022/05/14 09:59:35;;;;;;;16.08;4.03;;;;;;;;;;5055289;28;20337;-78
2022/05/14 10:02:15;;;;;;;15.35;3.83;;;;;;;;;;5064446;28;20104;-79
2022/05/14 10:04:47;;;;;;;16.03;4.20;;;;;;;;;;5065122;28;20045;-78
2022/05/14 10:07:20;;;;;;;13.45;3.55;;;;;;;;;;5063728;28;20053;-78
2022/05/14 10:10:01;;;;;;;12.68;3.42;;;;;;;;;;5063884;28;20196;-78
2022/05/14 10:12:30;;;;;;;12.65;3.65;;;;;;;;;;5064107;28;20111;-79
2022/05/14 10:15:06;;;;;;;15.63;3.63;;;;;;;;;;5062609;28;20919;-79
2022/05/14 10:17:48;;;;;;;16.52;3.60;;;;;;;;;;5062607;28;20343;-78
2022/05/14 10:20:20;;;;;;;14.05;3.42;;;;;;;;;;5044527;28;20081;-79
2022/05/14 10:28:49;;;;;;;15.88;3.35;;;;;;;;;;5047098;28;20141;-78
2022/05/14 10:31:37;;;;;;;14.52;3.30;;;;;;;;;;5050711;28;20060;-78
2022/05/14 10:34:07;;;;;;;13.73;3.40;;;;;;;;;;5048123;28;20064;-79
2022/05/14 10:36:37;;;;;;;14.18;3.88;;;;;;;;;;5048412;28;20064;-78
2022/05/14 10:39:09;;;;;;;12.70;3.60;;;;;;;;;;5049458;28;20077;-78
2022/05/14 10:41:40;;;;;;;14.75;3.22;;;;;;;;;;5064309;28;20152;-78
2022/05/14 10:44:11;;;;;;;14.68;3.40;;;;;;;;;;5061595;28;20053;-78
2022/05/14 10:46:39;;;;;;;13.75;3.83;;;;;;;;;;5064313;28;20095;-78
2022/05/14 10:49:13;;;;;;;11.02;3.17;;;;;;;;;;5068119;28;20135;-78
2022/05/14 10:51:52;;;;;;;15.00;3.45;;;;;;;;;;5069173;28;20065;-78
2022/05/14 10:54:24;;;;;;;11.85;3.08;;;;;;;;;;5066763;28;20509;-78
2022/05/14 10:56:56;;;;;;;11.20;3.30;;;;;;;;;;5070540;28;20612;-79
2022/05/14 10:59:35;;;;;;;13.75;3.75;;;;;;;;;;5079608;28;21095;-78
2022/05/14 11:02:10;;;;;;;12.63;3.28;;;;;;;;;;5088226;28;20131;-79
2022/05/14 11:04:40;;;;;;;13.43;3.58;;;;;;;;;;5048360;28;20088;-79
2022/05/14 11:07:08;;;;;;;11.23;3.30;;;;;;;;;;5066024;28;20136;-79
2022/05/14 11:09:38;;;;;;;12.00;3.00;;;;;;;;;;5068512;28;20057;-78
2022/05/14 11:12:06;;;;;;;13.68;3.00;;;;;;;;;;5069086;28;20576;-79
2022/05/14 11:14:35;;;;;;;14.73;3.22;;;;;;;;;;5070854;28;20052;-78
2022/05/14 11:17:02;;;;;;;13.32;3.38;;;;;;;;;;5089430;28;20505;-79
2022/05/14 11:19:30;;;;;;;13.23;3.53;;;;;;;;;;5086771;28;20060;-79
2022/05/14 11:21:57;;;;;;;14.57;3.47;;;;;;;;;;5090100;28;20052;-79
2022/05/14 11:24:39;;;;;;;13.55;3.58;;;;;;;;;;5056760;28;20194;-79
2022/05/14 11:27:06;;;;;;;13.52;3.58;;;;;;;;;;5066200;28;20226;-78
2022/05/14 11:29:48;;;;;;;12.02;3.65;;;;;;;;;;5065057;28;20057;-79
2022/05/14 11:32:19;;;;;;;10.60;3.25;;;;;;;;;;5080142;28;20139;-78
2022/05/14 11:34:50;;;;;;;16.05;3.38;;;;;;;;;;5089390;28;20911;-78
2022/05/14 11:37:26;;;;;;;10.20;2.90;;;;;;;;;;5091086;28;20116;-78
2022/05/14 11:40:02;;;;;;;9.32;3.13;;;;;;;;;;5085138;28;20536;-78
2022/05/14 11:42:29;;;;;;;14.38;3.38;;;;;;;;;;5067375;28;20064;-78
2022/05/14 11:45:11;;;;;;;16.13;3.92;;;;;;;;;;5067249;28;20119;-78
2022/05/14 11:47:42;;;;;;;14.25;3.45;;;;;;;;;;5059642;28;20045;-79
2022/05/14 11:50:09;;;;;;;14.38;3.60;;;;;;;;;;5052068;28;20144;-79
2022/05/14 11:52:42;;;;;;;14.65;3.92;;;;;;;;;;5067873;28;20041;-80
2022/05/14 11:55:12;;;;;;;12.38;3.15;;;;;;;;;;5071540;28;20081;-79
2022/05/14 11:57:41;;;;;;;13.13;3.33;;;;;;;;;;5064099;28;20132;-80
2022/05/14 12:00:10;;;;;;;15.13;3.97;;;;;;;;;;5067695;28;20093;-79
2022/05/14 12:02:45;;;;;;;13.93;3.60;;;;;;;;;;5067530;28;20358;-79
2022/05/14 12:05:14;;;;;;;16.63;4.20;;;;;;;;;;5068724;28;20081;-79
2022/05/14 12:07:44;;;;;;;13.43;3.88;;;;;;;;;;5051735;28;20168;-79
2022/05/14 12:10:19;;;;;;;11.43;3.33;;;;;;;;;;5067404;28;20061;-79
2022/05/14 12:12:47;;;;;;;15.82;3.83;;;;;;;;;;5068074;28;20049;-80
2022/05/14 12:15:15;;;;;;;15.63;3.75;;;;;;;;;;5067518;28;20223;-79
2022/05/14 12:17:48;;;;;;;14.27;4.05;;;;;;;;;;5065941;28;20089;-78
2022/05/14 12:20:33;;;;;;;12.85;3.63;;;;;;;;;;5050568;28;20059;-80
2022/05/14 12:23:00;;;;;;;14.10;3.30;;;;;;;;;;5049888;28;20136;-79
2022/05/14 12:25:41;;;;;;;15.30;3.90;;;;;;;;;;5069589;28;20057;-79
2022/05/14 12:28:24;;;;;;;15.38;3.80;;;;;;;;;;5068407;28;20088;-79
2022/05/14 12:33:37;;;;;;;13.82;3.65;;;;;;;;;;5053924;28;20057;-79
2022/05/14 12:36:05;;;;;;;13.15;3.60;;;;;;;;;;5062487;28;20991;-80
2022/05/14 12:38:36;;;;;;;15.02;3.83;;;;;;;;;;5036871;28;20052;-80
2022/05/14 12:41:04;;;;;;;14.13;3.92;;;;;;;;;;5053722;28;20064;-79
2022/05/14 12:43:31;;;;;;;14.02;3.78;;;;;;;;;;5049450;28;20057;-78
2022/05/14 12:46:03;;;;;;;14.60;3.45;;;;;;;;;;5067994;28;20108;-79
2022/05/14 12:48:30;;;;;;;13.68;4.05;;;;;;;;;;5066326;28;20178;-79
2022/05/14 12:50:57;;;;;;;18.67;3.72;;;;;;;;;;5068258;28;20057;-79
2022/05/14 12:53:35;;;;;;;15.88;3.92;;;;;;;;;;5062376;28;20045;-79
2022/05/14 12:56:02;;;;;;;15.35;3.78;;;;;;;;;;5075505;28;20067;-79
2022/05/14 12:58:30;;;;;;;17.63;3.80;;;;;;;;;;5073046;28;20071;-79
2022/05/14 13:00:56;;;;;;;12.00;3.67;;;;;;;;;;5075018;28;20148;-80
2022/05/14 13:03:35;;;;;;;12.90;3.38;;;;;;;;;;5064916;28;20107;-79
2022/05/14 13:06:03;;;;;;;17.10;4.15;;;;;;;;;;5055272;28;20072;-79
2022/05/14 13:08:31;;;;;;;14.90;4.18;;;;;;;;;;5061576;28;20105;-79
2022/05/14 13:11:01;;;;;;;12.20;3.30;;;;;;;;;;5071861;28;20107;-77
2022/05/14 13:13:31;;;;;;;12.45;3.60;;;;;;;;;;5063040;28;20203;-78
2022/05/14 13:15:58;;;;;;;16.33;3.67;;;;;;;;;;5062736;28;20136;-78
2022/05/14 13:18:33;;;;;;;12.93;3.65;;;;;;;;;;5065212;28;20319;-80
2022/05/14 13:21:03;;;;;;;13.57;3.50;;;;;;;;;;5064193;28;20057;-78
2022/05/14 13:23:30;;;;;;;13.32;3.83;;;;;;;;;;5066800;28;20160;-78
2022/05/14 13:25:59;;;;;;;15.80;3.53;;;;;;;;;;5070002;28;20096;-78
2022/05/14 13:28:28;;;;;;;12.70;3.58;;;;;;;;;;5067690;28;20128;-78
2022/05/14 13:30:54;;;;;;;13.13;4.00;;;;;;;;;;5067956;28;20141;-78
2022/05/14 13:33:26;;;;;;;11.98;3.22;;;;;;;;;;5068899;28;20057;-78
2022/05/14 13:38:39;;;;;;;16.95;3.72;;;;;;;;;;5068729;28;20084;-79
2022/05/14 13:41:08;;;;;;;13.50;3.63;;;;;;;;;;5069013;28;20056;-78
2022/05/14 13:43:36;;;;;;;11.70;3.63;;;;;;;;;;5066334;28;20543;-78
2022/05/14 13:46:11;;;;;;;14.40;3.53;;;;;;;;;;5066470;28;20179;-79
2022/05/14 13:48:43;;;;;;;13.73;3.80;;;;;;;;;;5065846;28;20057;-78
2022/05/14 13:51:12;;;;;;;11.55;3.45;;;;;;;;;;5066969;28;20049;-78
2022/05/14 13:53:39;;;;;;;13.85;3.53;;;;;;;;;;5065387;28;20919;-78
2022/05/14 13:56:07;;;;;;;11.18;3.50;;;;;;;;;;5066426;28;20143;-78
2022/05/14 13:58:36;;;;;;;16.00;3.75;;;;;;;;;;5066449;28;20513;-78
2022/05/14 14:01:05;;;;;;;13.30;3.85;;;;;;;;;;5066144;28;20244;-78
2022/05/14 14:03:55;;;;;;;12.52;2.95;;;;;;;;;;5066024;28;20501;-79
2022/05/14 14:06:27;;;;;;;13.35;3.47;;;;;;;;;;5054900;28;20067;-78
2022/05/14 14:08:54;;;;;;;14.13;3.60;;;;;;;;;;5062781;28;20192;-77
2022/05/14 14:11:21;;;;;;;20.85;3.55;;;;;;;;;;5063201;28;20144;-78
2022/05/14 14:13:47;;;;;;;11.98;3.33;;;;;;;;;;5052024;28;20049;-78
2022/05/14 14:16:13;;;;;;;15.70;3.92;;;;;;;;;;5044310;28;20202;-78
2022/05/14 14:18:40;;;;;;;14.50;3.75;;;;;;;;;;5043219;28;20101;-77
2022/05/14 14:21:07;;;;;;;14.38;3.80;;;;;;;;;;5044223;28;20099;-78
2022/05/14 14:23:36;;;;;;;16.77;4.05;;;;;;;;;;5043158;28;20059;-78
2022/05/14 14:26:03;;;;;;;11.50;3.50;;;;;;;;;;5044602;28;20128;-77
2022/05/14 14:28:30;;;;;;;15.85;3.58;;;;;;;;;;5046957;28;20137;-78
2022/05/14 14:30:56;;;;;;;14.75;3.80;;;;;;;;;;5061266;28;20140;-78
2022/05/14 14:33:26;;;;;;;19.73;3.97;;;;;;;;;;5064171;28;20072;-78
2022/05/14 14:35:52;;;;;;;11.52;3.28;;;;;;;;;;5062909;28;20053;-77
2022/05/14 14:38:19;;;;;;;12.50;3.22;;;;;;;;;;5049472;28;20053;-78
2022/05/14 14:40:46;;;;;;;14.50;3.75;;;;;;;;;;5045411;28;20080;-77
2022/05/14 14:43:13;;;;;;;15.02;3.70;;;;;;;;;;5048536;28;20057;-78
2022/05/14 14:45:39;;;;;;;16.02;3.40;;;;;;;;;;5046303;28;20053;-77
2022/05/14 14:48:06;;;;;;;16.55;3.75;;;;;;;;;;5061809;28;20743;-78
2022/05/14 14:50:32;;;;;;;14.65;3.28;;;;;;;;;;5067610;28;20063;-78
2022/05/14 14:52:59;;;;;;;14.27;3.50;;;;;;;;;;5066532;28;20053;-78
2022/05/14 14:55:25;;;;;;;12.43;3.70;;;;;;;;;;5065958;28;20128;-78
2022/05/14 14:57:52;;;;;;;17.92;3.97;;;;;;;;;;5067457;28;20086;-78
2022/05/14 15:00:21;;;;;;;12.55;3.33;;;;;;;;;;5067813;28;20103;-77
2022/05/14 15:03:09;;;;;;;11.40;3.05;;;;;;;;;;5066001;28;20589;-78
2022/05/14 15:05:40;;;;;;;11.60;3.17;;;;;;;;;;5066830;28;20059;-78